Aviation Digital Data Service (ADDS)

Output produced by METARs form (0435 UTC 03 September 2014)
found at http://aviationweather.gov/adds/metars/
 
KHUL 030355Z 0304/0324 18006KT P6SM OVC008 
     FM030500 20006KT 2SM SHRA BR VCTS BKN005CB OVC010 
     FM030700 21005KT 1SM SHRA BR OVC003 
     FM031100 28006KT 5SM BR VCSH BKN005 OVC010 
     FM031300 30007KT P6SM BKN018 
     FM031600 31009KT P6SM BKN035 
     FM032000 30008KT P6SM SCT050